createdAt,value
2023-07-08T00:01:56.530Z,49.6
2023-07-08T00:06:53.073Z,49.7
2023-07-08T00:11:49.555Z,50.3
2023-07-08T00:16:46.099Z,50.6
2023-07-08T00:22:56.727Z,50.6
2023-07-08T00:27:53.292Z,50.3
2023-07-08T00:32:49.970Z,51
2023-07-08T00:37:46.332Z,51.3
2023-07-08T00:43:57.022Z,51.3
2023-07-08T00:48:53.595Z,51
2023-07-08T00:53:50.190Z,51.2
2023-07-08T00:58:46.622Z,51
2023-07-08T01:04:57.310Z,50.8
2023-07-08T01:09:53.856Z,51.3
2023-07-08T01:14:50.317Z,51.4
2023-07-08T01:19:46.903Z,50.7
2023-07-08T01:25:57.581Z,51.2
2023-07-08T01:30:54.113Z,50.7
2023-07-08T01:35:50.709Z,50.8
2023-07-08T01:40:47.160Z,50.7
2023-07-08T01:46:57.816Z,49.7
2023-07-08T01:51:54.449Z,50.1
2023-07-08T01:56:50.872Z,50.6
2023-07-08T02:01:47.452Z,50.7
2023-07-08T02:07:58.108Z,50.8
2023-07-08T02:12:54.687Z,50.8
2023-07-08T02:17:51.156Z,51
2023-07-08T02:22:47.686Z,50.8
2023-07-08T02:27:44.242Z,51.4
2023-07-08T02:33:54.896Z,52.2
2023-07-08T02:38:51.420Z,52.5
2023-07-08T02:43:48.012Z,53.4
2023-07-08T02:48:44.629Z,53.6
2023-07-08T02:54:55.253Z,54.8
2023-07-08T02:56:09.306Z,54.7
2023-07-08T03:04:48.458Z,54.8
2023-07-08T03:09:44.873Z,54.3
2023-07-08T03:15:55.510Z,53.8
2023-07-08T03:20:52.078Z,53.1
2023-07-08T03:25:48.631Z,52.1
2023-07-08T03:36:55.782Z,52
2023-07-08T03:41:52.296Z,51.5
2023-07-08T03:46:49.064Z,51.4
2023-07-08T03:51:45.435Z,51.8
2023-07-08T03:57:56.066Z,52.1
2023-07-08T04:02:52.957Z,52.5
2023-07-08T04:07:49.095Z,52.3
2023-07-08T04:17:50.463Z,52.6
2023-07-08T04:22:46.855Z,52.4
2023-07-08T04:28:57.603Z,51.7
2023-07-08T04:33:54.215Z,51.7
2023-07-08T04:38:50.696Z,51.9
2023-07-08T04:43:47.301Z,52.1
2023-07-08T04:49:57.871Z,52.3
2023-07-08T04:54:54.346Z,52.3
2023-07-08T04:59:51.909Z,51.9
2023-07-08T05:04:47.903Z,51.7
2023-07-08T05:09:43.988Z,52.2
2023-07-08T05:15:54.737Z,51.8
2023-07-08T05:20:51.107Z,52
2023-07-08T05:25:47.685Z,52.2
2023-07-08T05:31:58.723Z,51.1
2023-07-08T05:36:54.924Z,50.5
2023-07-08T05:41:51.427Z,50.1
2023-07-08T05:46:48.096Z,48.2
2023-07-08T05:51:44.443Z,48.6
2023-07-08T05:57:55.163Z,49.8
2023-07-08T06:02:51.665Z,50.4
2023-07-08T06:07:48.253Z,50.3
2023-07-08T06:13:58.863Z,50.4
2023-07-08T06:18:55.456Z,49.6
2023-07-08T06:23:51.918Z,50.1
2023-07-08T06:28:48.456Z,49.9
2023-07-08T06:33:45.036Z,49
2023-07-08T06:39:56.063Z,47.7
2023-07-08T06:44:53.932Z,48
2023-07-08T06:49:48.874Z,47.2
2023-07-08T06:54:45.397Z,46.1
2023-07-08T07:00:56.006Z,45.8
2023-07-08T07:05:52.473Z,46.4
2023-07-08T07:10:49.076Z,45.7
2023-07-08T07:15:45.556Z,44.1
2023-07-08T07:21:56.220Z,43.5
2023-07-08T07:26:53.019Z,43.1
2023-07-08T07:31:49.389Z,43.9
2023-07-08T07:36:45.839Z,44.9
2023-07-08T07:42:56.498Z,43.7
2023-07-08T07:47:53.142Z,44.8
2023-07-08T07:52:49.546Z,44.8
2023-07-08T08:03:56.829Z,43.5
2023-07-08T08:08:53.356Z,42.7
2023-07-08T08:13:51.980Z,42
2023-07-08T08:18:46.368Z,40.3
2023-07-08T08:24:57.060Z,41.8
2023-07-08T08:29:53.663Z,40.5
2023-07-08T08:34:50.112Z,40.2
2023-07-08T08:39:46.682Z,39.7
2023-07-08T08:45:57.806Z,40.1
2023-07-08T08:50:53.924Z,39.1
2023-07-08T08:55:50.453Z,39.4
2023-07-08T09:00:48.007Z,39
2023-07-08T09:06:57.644Z,38.7
2023-07-08T09:11:54.166Z,37.3
2023-07-08T09:16:50.999Z,38.6
2023-07-08T09:21:47.172Z,38.2
2023-07-08T09:27:57.834Z,37.8
2023-07-08T09:32:54.470Z,37.7
2023-07-08T09:37:51.107Z,36.1
2023-07-08T09:42:47.683Z,37.2
2023-07-08T09:48:58.302Z,35.1
2023-07-08T09:53:54.752Z,34.7
2023-07-08T09:58:51.196Z,33.8
2023-07-08T10:03:47.725Z,33.8
2023-07-08T10:09:58.603Z,33.4
2023-07-08T10:14:54.983Z,32.9
2023-07-08T10:19:51.507Z,34.1
2023-07-08T10:24:49.080Z,32.3
2023-07-08T10:29:44.534Z,32.7
2023-07-08T10:35:55.214Z,32.4
2023-07-08T10:40:51.735Z,32.4
2023-07-08T10:45:48.324Z,32.1
2023-07-08T10:50:44.837Z,33.2
2023-07-08T10:56:55.603Z,31.5
2023-07-08T11:01:52.180Z,32.7
2023-07-08T11:06:48.542Z,32.2
2023-07-08T11:11:45.054Z,31.3
2023-07-08T11:17:55.709Z,31.5
2023-07-08T11:22:52.295Z,30.2
2023-07-08T11:27:48.833Z,31.5
2023-07-08T11:32:45.461Z,31.6
2023-07-08T11:38:55.974Z,32.7
2023-07-08T11:43:52.559Z,30.1
2023-07-08T11:48:49.142Z,31.5
2023-07-08T11:53:45.552Z,30
2023-07-08T11:59:56.230Z,30.8
2023-07-08T12:04:52.858Z,30.5
2023-07-08T12:09:49.417Z,30.7
2023-07-08T12:14:45.858Z,28.1
2023-07-08T12:20:56.519Z,27
2023-07-08T12:25:53.120Z,27.1
2023-07-08T12:30:49.706Z,26.9
2023-07-08T12:41:56.793Z,28.1
2023-07-08T12:46:53.355Z,27.2
2023-07-08T12:51:49.842Z,25.1
2023-07-08T12:56:46.447Z,25.1
2023-07-08T13:02:57.121Z,24.6
2023-07-08T13:07:53.668Z,24.8
2023-07-08T13:12:50.228Z,23.7
2023-07-08T13:17:46.716Z,22.7
2023-07-08T13:23:57.343Z,23.1
2023-07-08T13:28:53.924Z,22.4
2023-07-08T13:33:50.428Z,21.7
2023-07-08T13:38:46.969Z,22.8
2023-07-08T13:44:57.545Z,21
2023-07-08T13:49:54.148Z,20.6
2023-07-08T13:54:50.614Z,20.8
2023-07-08T13:59:47.213Z,21
2023-07-08T14:04:43.796Z,21.5
2023-07-08T14:10:54.485Z,21
2023-07-08T14:15:51.073Z,21.2
2023-07-08T14:20:47.501Z,20
2023-07-08T14:26:58.165Z,19.7
2023-07-08T14:31:54.815Z,20.3
2023-07-08T14:36:51.271Z,20.7
2023-07-08T14:41:47.761Z,20.9
2023-07-08T14:47:58.625Z,20.3
2023-07-08T14:52:55.717Z,20.4
2023-07-08T14:57:51.504Z,19.4
2023-07-08T15:02:48.111Z,21.5
2023-07-08T15:07:44.995Z,24.5
2023-07-08T15:13:55.469Z,21.5
2023-07-08T15:18:51.966Z,21
2023-07-08T15:23:48.294Z,21.4
2023-07-08T15:28:44.869Z,21.2
2023-07-08T15:34:56.638Z,25
2023-07-08T15:39:52.064Z,25.4
2023-07-08T15:44:48.565Z,22.5
2023-07-08T15:49:45.186Z,23.5
2023-07-08T15:55:55.736Z,28.2
2023-07-08T16:00:52.341Z,29.8
2023-07-08T16:05:48.879Z,30.7
2023-07-08T16:10:45.464Z,28.9
2023-07-08T16:16:56.061Z,24.4
2023-07-08T16:21:52.677Z,23.9
2023-07-08T16:26:49.116Z,24.8
2023-07-08T16:31:45.638Z,28.5
2023-07-08T16:37:56.524Z,31.2
2023-07-08T16:41:46.912Z,32.5
2023-07-08T16:47:57.643Z,34
2023-07-08T16:52:54.104Z,34.8
2023-07-08T16:57:50.635Z,36
2023-07-08T17:02:47.246Z,36.6
2023-07-08T17:08:57.832Z,37.7
2023-07-08T17:13:54.915Z,38.2
2023-07-08T17:18:50.905Z,38.6
2023-07-08T17:23:47.539Z,64.9
2023-07-08T17:29:58.132Z,100
2023-07-08T17:34:54.680Z,100
2023-07-08T17:39:51.155Z,100
2023-07-08T17:44:47.748Z,100
2023-07-08T17:49:44.723Z,100
2023-07-08T17:55:55.020Z,100
2023-07-08T18:00:52.089Z,100
2023-07-08T18:05:48.000Z,100
2023-07-08T18:10:44.514Z,100
2023-07-08T18:16:55.311Z,100
2023-07-08T18:21:51.842Z,100
2023-07-08T18:26:48.365Z,100
2023-07-08T18:31:44.943Z,100
2023-07-08T18:37:55.458Z,100
2023-07-08T18:47:48.676Z,100
2023-07-08T18:52:45.058Z,100
2023-07-08T18:58:55.748Z,98.4
2023-07-08T19:03:52.319Z,92.4
2023-07-08T19:08:49.279Z,89.7
2023-07-08T19:19:56.021Z,83.2
2023-07-08T19:24:52.746Z,85.4
2023-07-08T19:29:49.062Z,84.4
2023-07-08T19:34:45.583Z,81.2
2023-07-08T19:40:56.265Z,76.6
2023-07-08T19:45:52.874Z,80.5
2023-07-08T19:50:49.356Z,81.3
2023-07-08T19:55:45.968Z,83.3
2023-07-08T20:01:56.574Z,81.7
2023-07-08T20:06:53.079Z,81.6
2023-07-08T20:11:49.643Z,81.7
2023-07-08T20:16:46.143Z,84.9
2023-07-08T20:22:56.836Z,86.6
2023-07-08T20:27:53.880Z,87.6
2023-07-08T20:32:50.068Z,85.6
2023-07-08T20:43:57.082Z,81.6
2023-07-08T20:48:53.655Z,80.1
2023-07-08T20:53:50.125Z,79.5
2023-07-08T20:58:46.687Z,79.4
2023-07-08T21:04:57.362Z,79.1
2023-07-08T21:09:53.928Z,76.7
2023-07-08T21:14:50.437Z,76.3
2023-07-08T21:19:46.985Z,75.3
2023-07-08T21:25:57.594Z,74.3
2023-07-08T21:30:54.245Z,74.1
2023-07-08T21:35:50.651Z,71.7
2023-07-08T21:40:47.212Z,72.7
2023-07-08T21:46:57.897Z,74.5
2023-07-08T21:51:54.489Z,74.5
2023-07-08T21:56:50.921Z,75.2
2023-07-08T22:01:47.589Z,75.2
2023-07-08T22:07:58.142Z,75.4
2023-07-08T22:12:54.786Z,75.2
2023-07-08T22:17:51.354Z,74.1
2023-07-08T22:22:47.770Z,74.3
2023-07-08T22:27:44.283Z,72.7
2023-07-08T22:33:54.962Z,72.4
2023-07-08T22:38:51.460Z,74.2
2023-07-08T22:43:48.028Z,73.9
2023-07-08T22:48:44.571Z,75.1
2023-07-08T22:54:55.274Z,75.2
2023-07-08T22:59:51.810Z,76.2
2023-07-08T23:04:48.304Z,76.2
2023-07-08T23:09:44.844Z,77
2023-07-08T23:15:55.508Z,79.1
2023-07-08T23:20:52.073Z,79
2023-07-08T23:25:48.599Z,79.2
2023-07-08T23:30:45.107Z,81.8
2023-07-08T23:36:55.780Z,80.2
2023-07-08T23:41:52.328Z,77.3
2023-07-08T23:46:49.040Z,79
2023-07-08T23:57:56.032Z,79.2
